sensor_id;sensor_type;location;lat;lon;timestamp;P1;durP1;ratioP1;P2;durP2;ratioP2
30934;SDS011;51033;42.648;23.292;2022-11-15T00:01:37;35.97;;;19.05;;
30934;SDS011;51033;42.648;23.292;2022-11-15T00:04:03;34.13;;;18.50;;
30934;SDS011;51033;42.648;23.292;2022-11-15T00:06:30;40.55;;;20.70;;
30934;SDS011;51033;42.648;23.292;2022-11-15T00:08:59;37.95;;;20.63;;
30934;SDS011;51033;42.648;23.292;2022-11-15T00:11:25;39.97;;;22.52;;
30934;SDS011;51033;42.648;23.292;2022-11-15T00:13:51;39.55;;;20.88;;
30934;SDS011;51033;42.648;23.292;2022-11-15T00:16:16;34.33;;;17.15;;
30934;SDS011;51033;42.648;23.292;2022-11-15T00:18:42;32.63;;;18.38;;
30934;SDS011;51033;42.648;23.292;2022-11-15T00:21:09;25.27;;;13.30;;
30934;SDS011;51033;42.648;23.292;2022-11-15T00:23:36;21.38;;;12.55;;
30934;SDS011;51033;42.648;23.292;2022-11-15T00:26:05;27.02;;;13.90;;
30934;SDS011;51033;42.648;23.292;2022-11-15T00:28:31;26.13;;;13.45;;
30934;SDS011;51033;42.648;23.292;2022-11-15T00:31:03;25.63;;;14.82;;
30934;SDS011;51033;42.648;23.292;2022-11-15T00:33:30;29.25;;;15.80;;
30934;SDS011;51033;42.648;23.292;2022-11-15T00:36:03;30.88;;;15.15;;
30934;SDS011;51033;42.648;23.292;2022-11-15T00:38:31;25.48;;;15.02;;
30934;SDS011;51033;42.648;23.292;2022-11-15T00:40:57;38.67;;;18.88;;
30934;SDS011;51033;42.648;23.292;2022-11-15T00:43:23;31.52;;;17.75;;
30934;SDS011;51033;42.648;23.292;2022-11-15T00:45:48;44.70;;;21.13;;
30934;SDS011;51033;42.648;23.292;2022-11-15T00:48:13;38.25;;;18.20;;
30934;SDS011;51033;42.648;23.292;2022-11-15T00:50:39;34.58;;;19.05;;
30934;SDS011;51033;42.648;23.292;2022-11-15T00:53:04;38.00;;;19.45;;
30934;SDS011;51033;42.648;23.292;2022-11-15T00:55:29;35.72;;;19.73;;
30934;SDS011;51033;42.648;23.292;2022-11-15T00:57:55;28.60;;;16.25;;
30934;SDS011;51033;42.648;23.292;2022-11-15T01:00:20;28.15;;;15.23;;
30934;SDS011;51033;42.648;23.292;2022-11-15T01:02:46;24.40;;;13.55;;
30934;SDS011;51033;42.648;23.292;2022-11-15T01:05:11;27.27;;;14.52;;
30934;SDS011;51033;42.648;23.292;2022-11-15T01:07:36;32.80;;;17.65;;
30934;SDS011;51033;42.648;23.292;2022-11-15T01:10:02;34.03;;;15.95;;
30934;SDS011;51033;42.648;23.292;2022-11-15T01:12:28;29.92;;;14.52;;
30934;SDS011;51033;42.648;23.292;2022-11-15T01:14:53;27.70;;;14.15;;
30934;SDS011;51033;42.648;23.292;2022-11-15T01:17:19;27.35;;;13.55;;
30934;SDS011;51033;42.648;23.292;2022-11-15T01:19:44;21.83;;;12.32;;
30934;SDS011;51033;42.648;23.292;2022-11-15T01:22:10;24.42;;;12.73;;
30934;SDS011;51033;42.648;23.292;2022-11-15T01:24:35;23.23;;;13.50;;
30934;SDS011;51033;42.648;23.292;2022-11-15T01:27:01;19.77;;;11.13;;
30934;SDS011;51033;42.648;23.292;2022-11-15T01:29:26;21.90;;;12.68;;
30934;SDS011;51033;42.648;23.292;2022-11-15T01:31:52;20.58;;;12.07;;
30934;SDS011;51033;42.648;23.292;2022-11-15T01:34:18;23.00;;;12.30;;
30934;SDS011;51033;42.648;23.292;2022-11-15T01:36:44;25.73;;;14.40;;
30934;SDS011;51033;42.648;23.292;2022-11-15T01:39:09;25.13;;;12.93;;
30934;SDS011;51033;42.648;23.292;2022-11-15T01:41:34;21.52;;;12.13;;
30934;SDS011;51033;42.648;23.292;2022-11-15T01:46:57;21.60;;;11.73;;
30934;SDS011;51033;42.648;23.292;2022-11-15T01:49:24;22.75;;;13.38;;
30934;SDS011;51033;42.648;23.292;2022-11-15T01:51:52;23.63;;;13.25;;
30934;SDS011;51033;42.648;23.292;2022-11-15T01:54:19;22.25;;;11.75;;
30934;SDS011;51033;42.648;23.292;2022-11-15T01:56:48;20.80;;;11.45;;
30934;SDS011;51033;42.648;23.292;2022-11-15T01:59:18;23.70;;;12.90;;
30934;SDS011;51033;42.648;23.292;2022-11-15T02:01:45;22.55;;;11.52;;
30934;SDS011;51033;42.648;23.292;2022-11-15T02:06:38;18.73;;;10.25;;
30934;SDS011;51033;42.648;23.292;2022-11-15T02:09:04;22.10;;;11.40;;
30934;SDS011;51033;42.648;23.292;2022-11-15T02:11:30;23.85;;;12.10;;
30934;SDS011;51033;42.648;23.292;2022-11-15T02:13:56;24.35;;;13.60;;
30934;SDS011;51033;42.648;23.292;2022-11-15T02:25:30;24.83;;;13.38;;
30934;SDS011;51033;42.648;23.292;2022-11-15T02:36:22;27.88;;;14.60;;
30934;SDS011;51033;42.648;23.292;2022-11-15T02:39:03;23.00;;;12.13;;
30934;SDS011;51033;42.648;23.292;2022-11-15T02:41:39;23.63;;;13.20;;
30934;SDS011;51033;42.648;23.292;2022-11-15T02:46:43;23.65;;;12.05;;
30934;SDS011;51033;42.648;23.292;2022-11-15T02:49:33;21.10;;;12.70;;
30934;SDS011;51033;42.648;23.292;2022-11-15T02:52:00;29.95;;;15.63;;
30934;SDS011;51033;42.648;23.292;2022-11-15T02:54:28;30.42;;;16.55;;
30934;SDS011;51033;42.648;23.292;2022-11-15T02:57:02;24.80;;;14.60;;
30934;SDS011;51033;42.648;23.292;2022-11-15T03:05:35;27.63;;;14.25;;
30934;SDS011;51033;42.648;23.292;2022-11-15T03:08:10;34.72;;;15.85;;
30934;SDS011;51033;42.648;23.292;2022-11-15T03:11:28;33.63;;;15.82;;
30934;SDS011;51033;42.648;23.292;2022-11-15T03:16:29;30.50;;;16.80;;
30934;SDS011;51033;42.648;23.292;2022-11-15T03:24:14;28.98;;;15.65;;
30934;SDS011;51033;42.648;23.292;2022-11-15T03:26:43;46.45;;;20.75;;
30934;SDS011;51033;42.648;23.292;2022-11-15T03:29:17;51.60;;;21.23;;
30934;SDS011;51033;42.648;23.292;2022-11-15T03:34:21;53.78;;;21.92;;
30934;SDS011;51033;42.648;23.292;2022-11-15T03:36:52;52.97;;;23.75;;
30934;SDS011;51033;42.648;23.292;2022-11-15T03:39:18;47.47;;;21.65;;
30934;SDS011;51033;42.648;23.292;2022-11-15T03:41:48;51.00;;;22.38;;
30934;SDS011;51033;42.648;23.292;2022-11-15T03:47:36;43.22;;;21.30;;
30934;SDS011;51033;42.648;23.292;2022-11-15T03:50:10;44.63;;;22.05;;
30934;SDS011;51033;42.648;23.292;2022-11-15T03:52:38;34.38;;;18.23;;
30934;SDS011;51033;42.648;23.292;2022-11-15T03:55:07;33.08;;;16.60;;
30934;SDS011;51033;42.648;23.292;2022-11-15T03:57:36;30.38;;;15.65;;
30934;SDS011;51033;42.648;23.292;2022-11-15T04:00:02;27.83;;;14.90;;
30934;SDS011;51033;42.648;23.292;2022-11-15T04:02:30;43.50;;;20.77;;
30934;SDS011;51033;42.648;23.292;2022-11-15T04:04:56;59.35;;;26.13;;
30934;SDS011;51033;42.648;23.292;2022-11-15T04:07:21;47.22;;;21.35;;
30934;SDS011;51033;42.648;23.292;2022-11-15T04:09:47;46.67;;;20.88;;
30934;SDS011;51033;42.648;23.292;2022-11-15T04:12:28;41.13;;;19.13;;
30934;SDS011;51033;42.648;23.292;2022-11-15T04:15:01;42.40;;;21.30;;
30934;SDS011;51033;42.648;23.292;2022-11-15T04:17:34;40.20;;;19.98;;
30934;SDS011;51033;42.648;23.292;2022-11-15T04:20:06;45.22;;;20.73;;
30934;SDS011;51033;42.648;23.292;2022-11-15T04:23:21;44.60;;;20.77;;
30934;SDS011;51033;42.648;23.292;2022-11-15T04:26:06;35.83;;;20.23;;
30934;SDS011;51033;42.648;23.292;2022-11-15T04:28:35;37.45;;;17.58;;
30934;SDS011;51033;42.648;23.292;2022-11-15T04:31:20;29.95;;;17.20;;
30934;SDS011;51033;42.648;23.292;2022-11-15T04:33:46;32.60;;;17.75;;
30934;SDS011;51033;42.648;23.292;2022-11-15T04:36:11;32.22;;;17.48;;
30934;SDS011;51033;42.648;23.292;2022-11-15T04:38:55;33.30;;;17.70;;
30934;SDS011;51033;42.648;23.292;2022-11-15T04:41:20;30.20;;;16.88;;
30934;SDS011;51033;42.648;23.292;2022-11-15T04:43:46;37.63;;;18.65;;
30934;SDS011;51033;42.648;23.292;2022-11-15T04:46:11;34.97;;;18.23;;
30934;SDS011;51033;42.648;23.292;2022-11-15T04:48:36;33.85;;;18.15;;
30934;SDS011;51033;42.648;23.292;2022-11-15T04:51:02;38.88;;;21.17;;
30934;SDS011;51033;42.648;23.292;2022-11-15T04:53:27;46.45;;;22.95;;
30934;SDS011;51033;42.648;23.292;2022-11-15T04:55:53;35.55;;;19.33;;
30934;SDS011;51033;42.648;23.292;2022-11-15T04:58:18;47.65;;;21.17;;
30934;SDS011;51033;42.648;23.292;2022-11-15T05:00:43;43.53;;;22.10;;
30934;SDS011;51033;42.648;23.292;2022-11-15T05:03:09;41.35;;;20.73;;
30934;SDS011;51033;42.648;23.292;2022-11-15T05:05:53;41.38;;;21.45;;
30934;SDS011;51033;42.648;23.292;2022-11-15T05:08:19;44.70;;;20.92;;
30934;SDS011;51033;42.648;23.292;2022-11-15T05:10:44;44.20;;;21.33;;
30934;SDS011;51033;42.648;23.292;2022-11-15T05:13:10;37.70;;;20.92;;
30934;SDS011;51033;42.648;23.292;2022-11-15T05:15:35;41.42;;;20.77;;
30934;SDS011;51033;42.648;23.292;2022-11-15T05:18:00;39.63;;;21.08;;
30934;SDS011;51033;42.648;23.292;2022-11-15T05:20:26;36.58;;;18.23;;
30934;SDS011;51033;42.648;23.292;2022-11-15T05:22:52;30.73;;;17.70;;
30934;SDS011;51033;42.648;23.292;2022-11-15T05:25:20;37.25;;;19.92;;
30934;SDS011;51033;42.648;23.292;2022-11-15T05:27:45;32.28;;;18.33;;
30934;SDS011;51033;42.648;23.292;2022-11-15T05:30:11;33.40;;;17.55;;
30934;SDS011;51033;42.648;23.292;2022-11-15T05:32:36;33.08;;;19.13;;
30934;SDS011;51033;42.648;23.292;2022-11-15T05:35:02;41.13;;;19.50;;
30934;SDS011;51033;42.648;23.292;2022-11-15T05:37:30;38.92;;;18.67;;
30934;SDS011;51033;42.648;23.292;2022-11-15T05:39:55;45.35;;;20.65;;
30934;SDS011;51033;42.648;23.292;2022-11-15T05:42:21;45.47;;;21.10;;
30934;SDS011;51033;42.648;23.292;2022-11-15T05:44:47;43.10;;;20.20;;
30934;SDS011;51033;42.648;23.292;2022-11-15T05:47:21;44.20;;;19.95;;
30934;SDS011;51033;42.648;23.292;2022-11-15T05:49:49;41.38;;;19.58;;
30934;SDS011;51033;42.648;23.292;2022-11-15T05:52:17;37.20;;;19.58;;
30934;SDS011;51033;42.648;23.292;2022-11-15T05:54:47;44.75;;;21.83;;
30934;SDS011;51033;42.648;23.292;2022-11-15T05:57:14;42.97;;;20.75;;
30934;SDS011;51033;42.648;23.292;2022-11-15T05:59:39;37.30;;;21.15;;
30934;SDS011;51033;42.648;23.292;2022-11-15T06:02:08;33.17;;;17.88;;
30934;SDS011;51033;42.648;23.292;2022-11-15T06:04:34;33.28;;;18.50;;
30934;SDS011;51033;42.648;23.292;2022-11-15T06:06:59;43.65;;;20.98;;
30934;SDS011;51033;42.648;23.292;2022-11-15T06:09:24;39.03;;;19.25;;
30934;SDS011;51033;42.648;23.292;2022-11-15T06:11:50;35.63;;;18.20;;
30934;SDS011;51033;42.648;23.292;2022-11-15T06:14:15;43.70;;;21.27;;
30934;SDS011;51033;42.648;23.292;2022-11-15T06:16:41;48.25;;;19.98;;
30934;SDS011;51033;42.648;23.292;2022-11-15T06:19:06;44.90;;;20.77;;
30934;SDS011;51033;42.648;23.292;2022-11-15T06:21:32;44.15;;;20.05;;
30934;SDS011;51033;42.648;23.292;2022-11-15T06:23:58;39.47;;;22.63;;
30934;SDS011;51033;42.648;23.292;2022-11-15T06:26:23;43.53;;;20.92;;
30934;SDS011;51033;42.648;23.292;2022-11-15T06:28:49;47.65;;;23.48;;
30934;SDS011;51033;42.648;23.292;2022-11-15T06:31:14;50.38;;;23.60;;
30934;SDS011;51033;42.648;23.292;2022-11-15T06:33:40;57.03;;;26.88;;
30934;SDS011;51033;42.648;23.292;2022-11-15T06:36:06;53.30;;;23.05;;
30934;SDS011;51033;42.648;23.292;2022-11-15T06:38:34;50.00;;;23.42;;
30934;SDS011;51033;42.648;23.292;2022-11-15T06:41:02;48.05;;;22.05;;
30934;SDS011;51033;42.648;23.292;2022-11-15T06:43:29;40.75;;;20.60;;
30934;SDS011;51033;42.648;23.292;2022-11-15T06:45:55;44.83;;;20.88;;
30934;SDS011;51033;42.648;23.292;2022-11-15T06:48:20;46.33;;;22.23;;
30934;SDS011;51033;42.648;23.292;2022-11-15T06:50:52;46.20;;;22.13;;
30934;SDS011;51033;42.648;23.292;2022-11-15T06:53:19;48.67;;;22.73;;
30934;SDS011;51033;42.648;23.292;2022-11-15T06:55:45;47.42;;;23.52;;
30934;SDS011;51033;42.648;23.292;2022-11-15T06:58:10;53.55;;;24.50;;
30934;SDS011;51033;42.648;23.292;2022-11-15T07:00:35;52.33;;;26.13;;
30934;SDS011;51033;42.648;23.292;2022-11-15T07:03:01;49.17;;;24.98;;
30934;SDS011;51033;42.648;23.292;2022-11-15T07:05:27;53.33;;;24.60;;
30934;SDS011;51033;42.648;23.292;2022-11-15T07:07:53;49.30;;;23.85;;
30934;SDS011;51033;42.648;23.292;2022-11-15T07:10:20;51.80;;;22.38;;
30934;SDS011;51033;42.648;23.292;2022-11-15T07:12:47;46.28;;;22.85;;
30934;SDS011;51033;42.648;23.292;2022-11-15T07:15:14;50.05;;;23.52;;
30934;SDS011;51033;42.648;23.292;2022-11-15T07:17:40;50.97;;;23.85;;
30934;SDS011;51033;42.648;23.292;2022-11-15T07:20:05;44.90;;;21.98;;
30934;SDS011;51033;42.648;23.292;2022-11-15T07:22:31;44.45;;;21.55;;
30934;SDS011;51033;42.648;23.292;2022-11-15T07:24:57;52.97;;;24.25;;
30934;SDS011;51033;42.648;23.292;2022-11-15T07:27:22;62.30;;;28.38;;
30934;SDS011;51033;42.648;23.292;2022-11-15T07:29:47;61.50;;;29.00;;
30934;SDS011;51033;42.648;23.292;2022-11-15T07:32:13;61.17;;;29.42;;
30934;SDS011;51033;42.648;23.292;2022-11-15T07:34:38;69.30;;;31.15;;
30934;SDS011;51033;42.648;23.292;2022-11-15T07:37:03;59.97;;;28.45;;
30934;SDS011;51033;42.648;23.292;2022-11-15T07:39:29;57.13;;;28.20;;
30934;SDS011;51033;42.648;23.292;2022-11-15T07:41:54;62.67;;;29.55;;
30934;SDS011;51033;42.648;23.292;2022-11-15T07:44:39;66.03;;;28.27;;
30934;SDS011;51033;42.648;23.292;2022-11-15T07:47:05;56.83;;;26.55;;
30934;SDS011;51033;42.648;23.292;2022-11-15T07:49:30;63.35;;;29.25;;
30934;SDS011;51033;42.648;23.292;2022-11-15T07:51:56;63.83;;;28.63;;
30934;SDS011;51033;42.648;23.292;2022-11-15T07:54:21;73.82;;;31.15;;
30934;SDS011;51033;42.648;23.292;2022-11-15T07:56:46;73.80;;;33.28;;
30934;SDS011;51033;42.648;23.292;2022-11-15T07:59:12;79.63;;;31.17;;
30934;SDS011;51033;42.648;23.292;2022-11-15T08:01:37;83.60;;;35.50;;
30934;SDS011;51033;42.648;23.292;2022-11-15T08:04:03;86.80;;;38.78;;
30934;SDS011;51033;42.648;23.292;2022-11-15T08:06:28;88.00;;;36.25;;
30934;SDS011;51033;42.648;23.292;2022-11-15T08:08:54;96.57;;;37.92;;
30934;SDS011;51033;42.648;23.292;2022-11-15T08:11:19;85.40;;;37.15;;
30934;SDS011;51033;42.648;23.292;2022-11-15T08:13:44;93.93;;;38.15;;
30934;SDS011;51033;42.648;23.292;2022-11-15T08:16:10;85.85;;;37.75;;
30934;SDS011;51033;42.648;23.292;2022-11-15T08:18:37;102.85;;;42.05;;
30934;SDS011;51033;42.648;23.292;2022-11-15T08:21:03;107.22;;;41.10;;
30934;SDS011;51033;42.648;23.292;2022-11-15T08:23:29;105.43;;;42.30;;
30934;SDS011;51033;42.648;23.292;2022-11-15T08:26:01;107.30;;;44.88;;
30934;SDS011;51033;42.648;23.292;2022-11-15T08:28:27;116.18;;;47.08;;
30934;SDS011;51033;42.648;23.292;2022-11-15T08:30:53;108.65;;;44.40;;
30934;SDS011;51033;42.648;23.292;2022-11-15T08:33:18;111.00;;;44.17;;
30934;SDS011;51033;42.648;23.292;2022-11-15T08:35:44;119.78;;;50.03;;
30934;SDS011;51033;42.648;23.292;2022-11-15T08:38:09;130.52;;;52.67;;
30934;SDS011;51033;42.648;23.292;2022-11-15T08:40:35;118.47;;;50.70;;
30934;SDS011;51033;42.648;23.292;2022-11-15T08:43:00;108.47;;;45.42;;
30934;SDS011;51033;42.648;23.292;2022-11-15T08:45:27;117.65;;;45.72;;
30934;SDS011;51033;42.648;23.292;2022-11-15T08:47:54;120.00;;;46.65;;
30934;SDS011;51033;42.648;23.292;2022-11-15T08:50:19;121.95;;;49.65;;
30934;SDS011;51033;42.648;23.292;2022-11-15T08:52:45;129.27;;;48.72;;
30934;SDS011;51033;42.648;23.292;2022-11-15T08:55:10;123.90;;;49.35;;
30934;SDS011;51033;42.648;23.292;2022-11-15T08:57:35;119.63;;;49.67;;
30934;SDS011;51033;42.648;23.292;2022-11-15T09:00:01;120.30;;;47.17;;
30934;SDS011;51033;42.648;23.292;2022-11-15T09:02:27;108.03;;;46.35;;
30934;SDS011;51033;42.648;23.292;2022-11-15T09:04:53;107.93;;;46.28;;
30934;SDS011;51033;42.648;23.292;2022-11-15T09:07:18;113.13;;;43.13;;
30934;SDS011;51033;42.648;23.292;2022-11-15T09:09:43;114.57;;;47.63;;
30934;SDS011;51033;42.648;23.292;2022-11-15T09:12:09;115.55;;;47.67;;
30934;SDS011;51033;42.648;23.292;2022-11-15T09:14:34;108.82;;;46.00;;
30934;SDS011;51033;42.648;23.292;2022-11-15T09:17:00;114.75;;;48.03;;
30934;SDS011;51033;42.648;23.292;2022-11-15T09:19:26;112.47;;;45.63;;
30934;SDS011;51033;42.648;23.292;2022-11-15T09:21:52;105.55;;;47.45;;
30934;SDS011;51033;42.648;23.292;2022-11-15T09:24:17;114.82;;;44.60;;
30934;SDS011;51033;42.648;23.292;2022-11-15T09:26:43;102.82;;;44.85;;
30934;SDS011;51033;42.648;23.292;2022-11-15T09:29:09;119.13;;;47.60;;
30934;SDS011;51033;42.648;23.292;2022-11-15T09:31:34;96.50;;;43.70;;
30934;SDS011;51033;42.648;23.292;2022-11-15T09:34:00;116.30;;;44.58;;
30934;SDS011;51033;42.648;23.292;2022-11-15T09:36:25;106.15;;;43.53;;
30934;SDS011;51033;42.648;23.292;2022-11-15T09:38:50;102.10;;;44.03;;
30934;SDS011;51033;42.648;23.292;2022-11-15T09:44:19;102.30;;;43.78;;
30934;SDS011;51033;42.648;23.292;2022-11-15T09:49:24;108.38;;;45.45;;
30934;SDS011;51033;42.648;23.292;2022-11-15T09:51:51;117.30;;;45.97;;
30934;SDS011;51033;42.648;23.292;2022-11-15T09:54:29;109.20;;;44.10;;
30934;SDS011;51033;42.648;23.292;2022-11-15T09:57:04;107.55;;;44.83;;
30934;SDS011;51033;42.648;23.292;2022-11-15T09:59:55;109.57;;;45.70;;
30934;SDS011;51033;42.648;23.292;2022-11-15T10:05:09;106.85;;;45.67;;
30934;SDS011;51033;42.648;23.292;2022-11-15T10:08:25;119.07;;;46.78;;
30934;SDS011;51033;42.648;23.292;2022-11-15T10:10:40;108.28;;;44.08;;
30934;SDS011;51033;42.648;23.292;2022-11-15T10:13:20;111.82;;;42.55;;
30934;SDS011;51033;42.648;23.292;2022-11-15T10:15:47;111.15;;;44.85;;
30934;SDS011;51033;42.648;23.292;2022-11-15T10:23:18;108.43;;;43.97;;
30934;SDS011;51033;42.648;23.292;2022-11-15T10:25:46;107.88;;;45.28;;
30934;SDS011;51033;42.648;23.292;2022-11-15T10:30:43;110.28;;;46.10;;
30934;SDS011;51033;42.648;23.292;2022-11-15T10:33:32;108.03;;;47.00;;
30934;SDS011;51033;42.648;23.292;2022-11-15T10:41:38;110.57;;;44.65;;
30934;SDS011;51033;42.648;23.292;2022-11-15T10:46:43;116.22;;;47.55;;
30934;SDS011;51033;42.648;23.292;2022-11-15T10:49:17;99.93;;;43.70;;
30934;SDS011;51033;42.648;23.292;2022-11-15T10:51:45;109.82;;;46.08;;
30934;SDS011;51033;42.648;23.292;2022-11-15T10:54:13;116.75;;;46.03;;
30934;SDS011;51033;42.648;23.292;2022-11-15T10:56:48;105.97;;;43.55;;
30934;SDS011;51033;42.648;23.292;2022-11-15T10:59:23;92.57;;;41.90;;
30934;SDS011;51033;42.648;23.292;2022-11-15T11:01:52;101.32;;;42.53;;
30934;SDS011;51033;42.648;23.292;2022-11-15T11:04:17;97.03;;;42.53;;
30934;SDS011;51033;42.648;23.292;2022-11-15T11:09:34;94.88;;;42.55;;
30934;SDS011;51033;42.648;23.292;2022-11-15T11:12:09;103.20;;;42.78;;
30934;SDS011;51033;42.648;23.292;2022-11-15T11:14:37;91.50;;;41.08;;
30934;SDS011;51033;42.648;23.292;2022-11-15T11:17:14;96.57;;;40.88;;
30934;SDS011;51033;42.648;23.292;2022-11-15T11:33:32;86.03;;;41.47;;
30934;SDS011;51033;42.648;23.292;2022-11-15T11:36:07;83.30;;;40.08;;
30934;SDS011;51033;42.648;23.292;2022-11-15T11:49:29;80.72;;;37.92;;
30934;SDS011;51033;42.648;23.292;2022-11-15T11:52:07;78.43;;;36.50;;
30934;SDS011;51033;42.648;23.292;2022-11-15T11:54:39;79.32;;;36.33;;
30934;SDS011;51033;42.648;23.292;2022-11-15T12:07:59;69.35;;;33.80;;
30934;SDS011;51033;42.648;23.292;2022-11-15T12:10:40;70.18;;;34.20;;
30934;SDS011;51033;42.648;23.292;2022-11-15T12:13:16;74.13;;;32.50;;
30934;SDS011;51033;42.648;23.292;2022-11-15T12:15:53;88.78;;;36.97;;
30934;SDS011;51033;42.648;23.292;2022-11-15T12:18:24;72.03;;;35.92;;
30934;SDS011;51033;42.648;23.292;2022-11-15T12:20:57;76.60;;;35.78;;
30934;SDS011;51033;42.648;23.292;2022-11-15T12:23:29;72.72;;;38.17;;
30934;SDS011;51033;42.648;23.292;2022-11-15T12:26:04;75.78;;;37.03;;
30934;SDS011;51033;42.648;23.292;2022-11-15T12:28:45;82.28;;;36.53;;
30934;SDS011;51033;42.648;23.292;2022-11-15T12:31:32;81.03;;;38.15;;
30934;SDS011;51033;42.648;23.292;2022-11-15T12:36:46;83.38;;;41.50;;
30934;SDS011;51033;42.648;23.292;2022-11-15T12:39:12;92.93;;;42.47;;
30934;SDS011;51033;42.648;23.292;2022-11-15T12:41:43;85.28;;;40.60;;
30934;SDS011;51033;42.648;23.292;2022-11-15T12:57:21;77.05;;;39.53;;
30934;SDS011;51033;42.648;23.292;2022-11-15T12:59:51;79.50;;;37.25;;
30934;SDS011;51033;42.648;23.292;2022-11-15T13:02:22;77.63;;;38.22;;
30934;SDS011;51033;42.648;23.292;2022-11-15T13:04:50;71.70;;;37.38;;
30934;SDS011;51033;42.648;23.292;2022-11-15T13:10:03;69.03;;;36.17;;
30934;SDS011;51033;42.648;23.292;2022-11-15T13:12:49;76.43;;;36.78;;
30934;SDS011;51033;42.648;23.292;2022-11-15T13:18:18;73.47;;;36.10;;
30934;SDS011;51033;42.648;23.292;2022-11-15T13:21:05;74.55;;;37.60;;
30934;SDS011;51033;42.648;23.292;2022-11-15T13:24:03;74.43;;;36.03;;
30934;SDS011;51033;42.648;23.292;2022-11-15T13:26:29;74.00;;;38.17;;
30934;SDS011;51033;42.648;23.292;2022-11-15T13:28:54;69.47;;;38.13;;
30934;SDS011;51033;42.648;23.292;2022-11-15T13:32:03;69.82;;;36.38;;
30934;SDS011;51033;42.648;23.292;2022-11-15T13:34:31;71.47;;;36.47;;
30934;SDS011;51033;42.648;23.292;2022-11-15T13:37:00;67.07;;;36.35;;
30934;SDS011;51033;42.648;23.292;2022-11-15T13:39:33;59.53;;;33.10;;
30934;SDS011;51033;42.648;23.292;2022-11-15T13:42:02;69.60;;;35.42;;
30934;SDS011;51033;42.648;23.292;2022-11-15T13:44:30;70.18;;;36.65;;
30934;SDS011;51033;42.648;23.292;2022-11-15T13:47:01;65.55;;;32.55;;
30934;SDS011;51033;42.648;23.292;2022-11-15T13:49:46;72.05;;;37.53;;
30934;SDS011;51033;42.648;23.292;2022-11-15T13:52:13;67.30;;;35.35;;
30934;SDS011;51033;42.648;23.292;2022-11-15T13:54:43;78.78;;;36.95;;
30934;SDS011;51033;42.648;23.292;2022-11-15T13:59:45;76.15;;;33.25;;
30934;SDS011;51033;42.648;23.292;2022-11-15T14:02:14;64.28;;;34.75;;
30934;SDS011;51033;42.648;23.292;2022-11-15T14:04:49;71.65;;;35.08;;
30934;SDS011;51033;42.648;23.292;2022-11-15T14:07:19;74.22;;;34.35;;
30934;SDS011;51033;42.648;23.292;2022-11-15T14:09:47;67.72;;;34.60;;
30934;SDS011;51033;42.648;23.292;2022-11-15T14:12:49;67.93;;;35.00;;
30934;SDS011;51033;42.648;23.292;2022-11-15T14:17:57;72.82;;;34.75;;
30934;SDS011;51033;42.648;23.292;2022-11-15T14:22:55;79.80;;;38.67;;
30934;SDS011;51033;42.648;23.292;2022-11-15T14:25:26;76.45;;;36.15;;
30934;SDS011;51033;42.648;23.292;2022-11-15T14:28:08;75.32;;;36.65;;
30934;SDS011;51033;42.648;23.292;2022-11-15T14:30:36;67.85;;;34.65;;
30934;SDS011;51033;42.648;23.292;2022-11-15T14:35:57;78.18;;;37.60;;
30934;SDS011;51033;42.648;23.292;2022-11-15T14:38:26;77.93;;;38.25;;
30934;SDS011;51033;42.648;23.292;2022-11-15T14:40:52;80.40;;;36.63;;
30934;SDS011;51033;42.648;23.292;2022-11-15T14:43:19;72.32;;;35.55;;
30934;SDS011;51033;42.648;23.292;2022-11-15T14:45:45;68.47;;;34.20;;
30934;SDS011;51033;42.648;23.292;2022-11-15T14:48:10;64.63;;;34.15;;
30934;SDS011;51033;42.648;23.292;2022-11-15T14:50:36;68.90;;;36.42;;
30934;SDS011;51033;42.648;23.292;2022-11-15T14:53:02;82.82;;;36.78;;
30934;SDS011;51033;42.648;23.292;2022-11-15T14:55:31;70.45;;;35.33;;
30934;SDS011;51033;42.648;23.292;2022-11-15T14:58:00;66.82;;;35.42;;
30934;SDS011;51033;42.648;23.292;2022-11-15T15:00:28;77.97;;;38.35;;
30934;SDS011;51033;42.648;23.292;2022-11-15T15:02:54;73.00;;;38.15;;
30934;SDS011;51033;42.648;23.292;2022-11-15T15:05:21;70.00;;;36.33;;
30934;SDS011;51033;42.648;23.292;2022-11-15T15:07:48;75.38;;;38.45;;
30934;SDS011;51033;42.648;23.292;2022-11-15T15:10:14;81.10;;;39.05;;
30934;SDS011;51033;42.648;23.292;2022-11-15T15:12:41;77.25;;;40.25;;
30934;SDS011;51033;42.648;23.292;2022-11-15T15:15:13;82.90;;;41.85;;
30934;SDS011;51033;42.648;23.292;2022-11-15T15:17:40;75.10;;;38.83;;
30934;SDS011;51033;42.648;23.292;2022-11-15T15:20:06;80.60;;;41.03;;
30934;SDS011;51033;42.648;23.292;2022-11-15T15:22:32;84.55;;;43.95;;
30934;SDS011;51033;42.648;23.292;2022-11-15T15:24:57;80.63;;;41.92;;
30934;SDS011;51033;42.648;23.292;2022-11-15T15:27:23;81.93;;;39.90;;
30934;SDS011;51033;42.648;23.292;2022-11-15T15:29:48;72.90;;;36.13;;
30934;SDS011;51033;42.648;23.292;2022-11-15T15:32:13;74.30;;;37.25;;
30934;SDS011;51033;42.648;23.292;2022-11-15T15:34:39;72.68;;;36.85;;
30934;SDS011;51033;42.648;23.292;2022-11-15T15:37:08;60.38;;;33.25;;
30934;SDS011;51033;42.648;23.292;2022-11-15T15:39:50;66.15;;;31.30;;
30934;SDS011;51033;42.648;23.292;2022-11-15T15:42:19;74.13;;;35.80;;
30934;SDS011;51033;42.648;23.292;2022-11-15T15:44:46;79.30;;;39.35;;
30934;SDS011;51033;42.648;23.292;2022-11-15T15:47:13;76.68;;;38.95;;
30934;SDS011;51033;42.648;23.292;2022-11-15T15:49:41;72.80;;;35.95;;
30934;SDS011;51033;42.648;23.292;2022-11-15T15:52:06;82.90;;;42.03;;
30934;SDS011;51033;42.648;23.292;2022-11-15T15:54:32;71.95;;;39.15;;
30934;SDS011;51033;42.648;23.292;2022-11-15T15:56:57;77.00;;;39.55;;
30934;SDS011;51033;42.648;23.292;2022-11-15T15:59:22;78.32;;;40.05;;
30934;SDS011;51033;42.648;23.292;2022-11-15T16:01:48;81.35;;;41.28;;
30934;SDS011;51033;42.648;23.292;2022-11-15T16:04:13;80.53;;;38.05;;
30934;SDS011;51033;42.648;23.292;2022-11-15T16:06:39;94.80;;;47.95;;
30934;SDS011;51033;42.648;23.292;2022-11-15T16:09:12;98.20;;;45.20;;
30934;SDS011;51033;42.648;23.292;2022-11-15T16:11:39;92.00;;;44.03;;
30934;SDS011;51033;42.648;23.292;2022-11-15T16:14:04;96.47;;;48.85;;
30934;SDS011;51033;42.648;23.292;2022-11-15T16:16:30;91.13;;;47.25;;
30934;SDS011;51033;42.648;23.292;2022-11-15T16:18:55;92.65;;;47.30;;
30934;SDS011;51033;42.648;23.292;2022-11-15T16:21:21;90.50;;;46.67;;
30934;SDS011;51033;42.648;23.292;2022-11-15T16:23:46;102.78;;;48.97;;
30934;SDS011;51033;42.648;23.292;2022-11-15T16:26:14;91.10;;;48.33;;
30934;SDS011;51033;42.648;23.292;2022-11-15T16:28:45;86.43;;;47.55;;
30934;SDS011;51033;42.648;23.292;2022-11-15T16:31:11;90.93;;;47.60;;
30934;SDS011;51033;42.648;23.292;2022-11-15T16:33:37;87.38;;;47.22;;
30934;SDS011;51033;42.648;23.292;2022-11-15T16:36:04;92.13;;;46.47;;